createdAt,value
2022-10-22T00:02:41.396Z,12.57
2022-10-22T00:05:27.996Z,13.70
2022-10-22T00:08:15.150Z,12.23
2022-10-22T00:11:09.467Z,12.17
2022-10-22T00:13:56.960Z,12.93
2022-10-22T00:16:45.164Z,11.97
2022-10-22T00:19:31.869Z,11.63
2022-10-22T00:22:18.679Z,11.27
2022-10-22T00:25:05.575Z,10.20
2022-10-22T00:27:52.168Z,10.83
2022-10-22T00:30:39.164Z,11.33
2022-10-22T00:33:27.708Z,12.87
2022-10-22T00:36:14.532Z,11.77
2022-10-22T00:39:01.300Z,13.20
2022-10-22T00:41:50.044Z,14.20
2022-10-22T00:45:02.924Z,13.13
2022-10-22T00:47:54.975Z,12.47
2022-10-22T00:50:46.989Z,13.00
2022-10-22T00:53:37.185Z,12.53
2022-10-22T00:56:24.817Z,11.97
2022-10-22T00:59:14.327Z,12.27
2022-10-22T01:02:01.147Z,12.33
2022-10-22T01:04:48.169Z,11.60
2022-10-22T01:07:42.076Z,11.60
2022-10-22T01:10:40.247Z,13.27
2022-10-22T01:13:38.574Z,10.83
2022-10-22T01:16:37.627Z,11.63
2022-10-22T01:19:43.721Z,11.70
2022-10-22T01:22:35.307Z,12.90
2022-10-22T01:25:35.418Z,13.37
2022-10-22T01:28:32.964Z,11.97
2022-10-22T01:31:23.291Z,11.80
2022-10-22T01:34:12.793Z,12.50
2022-10-22T01:37:01.546Z,12.70
2022-10-22T01:39:49.398Z,11.77
2022-10-22T01:42:36.414Z,13.30
2022-10-22T01:45:23.298Z,13.27
2022-10-22T01:48:23.100Z,12.53
2022-10-22T01:51:26.175Z,12.77
2022-10-22T01:54:22.675Z,11.87
2022-10-22T01:57:16.680Z,12.90
2022-10-22T02:00:08.732Z,12.37
2022-10-22T02:03:02.515Z,12.40
2022-10-22T02:05:54.690Z,11.83
2022-10-22T02:08:42.779Z,11.90
2022-10-22T02:11:29.916Z,11.87
2022-10-22T02:14:18.890Z,12.73
2022-10-22T02:17:10.079Z,10.80
2022-10-22T02:19:58.659Z,10.90
2022-10-22T02:22:47.896Z,11.77
2022-10-22T02:25:37.931Z,11.60
2022-10-22T02:28:30.391Z,11.17
2022-10-22T02:31:22.332Z,10.93
2022-10-22T02:34:14.240Z,11.83
2022-10-22T02:37:02.179Z,11.50
2022-10-22T02:39:50.859Z,10.63
2022-10-22T02:42:39.620Z,11.93
2022-10-22T02:45:26.582Z,10.50
2022-10-22T02:48:12.958Z,11.70
2022-10-22T02:50:59.716Z,11.23
2022-10-22T02:53:46.896Z,11.20
2022-10-22T02:56:35.220Z,10.90
2022-10-22T02:59:22.177Z,12.20
2022-10-22T03:02:09.365Z,11.27
2022-10-22T03:04:55.905Z,10.80
2022-10-22T03:07:42.968Z,11.50
2022-10-22T03:10:30.057Z,11.27
2022-10-22T03:13:18.209Z,10.60
2022-10-22T03:16:05.238Z,11.33
2022-10-22T03:18:51.899Z,10.47
2022-10-22T03:21:45.530Z,10.73
2022-10-22T03:24:36.803Z,10.40
2022-10-22T03:27:24.390Z,11.50
2022-10-22T03:30:13.453Z,11.30
2022-10-22T03:32:59.912Z,11.13
2022-10-22T03:35:48.939Z,12.40
2022-10-22T03:38:37.297Z,10.30
2022-10-22T03:41:24.301Z,10.80
2022-10-22T03:44:10.919Z,11.57
2022-10-22T03:47:02.489Z,12.03
2022-10-22T03:49:49.619Z,11.27
2022-10-22T03:52:38.219Z,10.83
2022-10-22T03:55:25.304Z,10.73
2022-10-22T03:58:12.061Z,11.20
2022-10-22T04:00:58.801Z,11.83
2022-10-22T04:03:46.817Z,9.90
2022-10-22T04:06:33.587Z,10.77
2022-10-22T04:09:20.383Z,10.90
2022-10-22T04:12:08.528Z,9.87
2022-10-22T04:14:55.033Z,11.77
2022-10-22T04:17:42.367Z,10.23
2022-10-22T04:20:30.805Z,10.50
2022-10-22T04:23:17.521Z,10.20
2022-10-22T04:26:06.847Z,10.27
2022-10-22T04:28:54.502Z,10.17
2022-10-22T04:31:41.106Z,10.30
2022-10-22T04:34:29.520Z,9.80
2022-10-22T04:37:17.953Z,10.17
2022-10-22T04:40:05.148Z,10.17
2022-10-22T04:42:52.026Z,10.27
2022-10-22T04:45:38.703Z,10.43
2022-10-22T04:48:25.528Z,10.10
2022-10-22T04:51:14.023Z,9.13
2022-10-22T04:54:02.941Z,10.70
2022-10-22T04:56:49.744Z,10.37
2022-10-22T04:59:36.521Z,9.43
2022-10-22T05:02:23.223Z,10.00
2022-10-22T05:05:10.252Z,8.43
2022-10-22T05:07:56.848Z,9.53
2022-10-22T05:10:44.999Z,9.60
2022-10-22T05:13:31.839Z,9.83
2022-10-22T05:16:18.693Z,9.87
2022-10-22T05:19:06.215Z,9.63
2022-10-22T05:21:52.802Z,9.63
2022-10-22T05:24:40.011Z,9.40
2022-10-22T05:27:27.775Z,9.90
2022-10-22T05:30:14.677Z,9.03
2022-10-22T05:33:01.709Z,9.40
2022-10-22T05:35:48.590Z,9.00
2022-10-22T05:38:38.274Z,9.87
2022-10-22T05:41:29.362Z,9.43
2022-10-22T05:44:18.268Z,8.57
2022-10-22T05:47:05.121Z,9.47
2022-10-22T05:49:52.098Z,9.33
2022-10-22T05:52:38.952Z,8.83
2022-10-22T05:55:26.130Z,9.30
2022-10-22T05:58:13.907Z,9.00
2022-10-22T06:01:06.326Z,8.87
2022-10-22T06:03:55.979Z,10.50
2022-10-22T06:06:45.467Z,9.60
2022-10-22T06:12:26.946Z,9.03
2022-10-22T06:15:15.516Z,8.87
2022-10-22T06:18:03.596Z,9.53
2022-10-22T06:20:50.440Z,9.60
2022-10-22T06:23:37.609Z,9.27
2022-10-22T06:26:24.696Z,8.63
2022-10-22T06:29:11.697Z,8.67
2022-10-22T06:31:58.391Z,9.27
2022-10-22T06:34:47.053Z,8.53
2022-10-22T06:37:33.589Z,9.77
2022-10-22T06:40:20.342Z,10.20
2022-10-22T06:43:07.106Z,9.37
2022-10-22T06:45:54.017Z,9.33
2022-10-22T06:48:41.113Z,8.67
2022-10-22T06:51:29.969Z,9.03
2022-10-22T06:54:16.543Z,9.03
2022-10-22T06:57:03.425Z,9.77
2022-10-22T06:59:50.191Z,9.90
2022-10-22T07:02:37.136Z,9.37
2022-10-22T07:05:24.089Z,9.07
2022-10-22T07:08:12.183Z,9.60
2022-10-22T07:11:07.556Z,9.27
2022-10-22T07:13:56.054Z,9.77
2022-10-22T07:16:43.329Z,9.97
2022-10-22T07:19:30.027Z,9.77
2022-10-22T07:22:16.809Z,9.33
2022-10-22T07:25:07.483Z,9.70
2022-10-22T07:27:54.451Z,9.73
2022-10-22T07:30:42.490Z,8.90
2022-10-22T07:33:29.293Z,9.37
2022-10-22T07:36:18.590Z,9.03
2022-10-22T07:39:05.985Z,10.07
2022-10-22T07:41:54.032Z,9.93
2022-10-22T07:44:40.503Z,9.80
2022-10-22T07:47:27.171Z,9.60
2022-10-22T07:50:14.026Z,9.90
2022-10-22T07:53:01.023Z,9.40
2022-10-22T07:55:49.465Z,9.40
2022-10-22T07:58:37.838Z,9.37
2022-10-22T08:01:24.411Z,9.40
2022-10-22T08:04:11.504Z,10.20
2022-10-22T08:06:58.345Z,10.37
2022-10-22T08:09:45.383Z,10.17
2022-10-22T08:12:31.881Z,11.20
2022-10-22T08:15:20.226Z,9.10
2022-10-22T08:18:07.284Z,11.03
2022-10-22T08:20:54.147Z,9.87
2022-10-22T08:23:41.158Z,11.00
2022-10-22T08:26:28.689Z,11.23
2022-10-22T08:29:15.636Z,10.93
2022-10-22T08:32:03.964Z,10.67
2022-10-22T08:34:51.644Z,10.67
2022-10-22T08:37:38.999Z,11.37
2022-10-22T08:40:31.585Z,10.80
2022-10-22T08:44:06.920Z,11.50
2022-10-22T08:47:22.586Z,11.63
2022-10-22T08:50:10.856Z,11.27
2022-10-22T08:53:02.317Z,11.57
2022-10-22T08:55:53.961Z,11.67
2022-10-22T08:58:48.203Z,11.33
2022-10-22T09:01:39.884Z,11.43
2022-10-22T09:04:32.080Z,11.87
2022-10-22T09:07:18.718Z,11.80
2022-10-22T09:10:05.994Z,11.83
2022-10-22T09:12:55.344Z,11.60
2022-10-22T09:15:43.804Z,11.53
2022-10-22T09:18:40.482Z,11.77
2022-10-22T09:21:35.388Z,11.53
2022-10-22T09:24:33.348Z,11.43
2022-10-22T09:27:23.806Z,10.87
2022-10-22T09:30:17.197Z,10.80
2022-10-22T09:33:15.375Z,10.53
2022-10-22T09:36:03.947Z,11.00
2022-10-22T09:38:54.128Z,11.50
2022-10-22T09:41:41.740Z,11.23
2022-10-22T09:44:28.802Z,10.50
2022-10-22T09:47:43.658Z,11.30
2022-10-22T09:50:45.704Z,10.67
2022-10-22T09:53:38.143Z,10.87
2022-10-22T09:56:31.600Z,10.47
2022-10-22T09:59:26.634Z,10.17
2022-10-22T10:02:37.438Z,9.90
2022-10-22T10:05:29.824Z,10.50
2022-10-22T10:08:19.267Z,10.77
2022-10-22T10:11:12.071Z,10.67
2022-10-22T10:14:11.729Z,9.43
2022-10-22T10:17:05.840Z,9.30
2022-10-22T10:20:03.984Z,9.63
2022-10-22T10:23:04.827Z,9.27
2022-10-22T10:25:59.412Z,9.03
2022-10-22T10:29:01.552Z,8.63
2022-10-22T10:32:08.494Z,8.70
2022-10-22T10:35:06.096Z,8.87
2022-10-22T10:38:10.244Z,8.63
2022-10-22T10:41:01.034Z,8.77
2022-10-22T10:44:12.952Z,7.93
2022-10-22T10:47:13.885Z,9.30
2022-10-22T10:50:15.171Z,8.07
2022-10-22T10:53:09.723Z,8.37
2022-10-22T10:56:02.840Z,7.57
2022-10-22T10:58:59.222Z,8.40
2022-10-22T11:02:02.044Z,8.67
2022-10-22T11:05:13.172Z,9.33
2022-10-22T11:08:02.959Z,8.70
2022-10-22T11:10:51.659Z,9.53
2022-10-22T11:13:44.048Z,10.10
2022-10-22T11:16:36.807Z,10.57
2022-10-22T11:19:49.782Z,8.90
2022-10-22T11:22:44.503Z,9.17
2022-10-22T11:25:44.594Z,10.33
2022-10-22T11:28:35.287Z,8.63
2022-10-22T11:31:26.524Z,10.30
2022-10-22T11:34:33.308Z,9.93
2022-10-22T11:37:22.210Z,9.73
2022-10-22T11:40:17.533Z,10.87
2022-10-22T11:43:07.073Z,11.10
2022-10-22T11:46:01.816Z,9.23
2022-10-22T11:49:03.251Z,10.13
2022-10-22T11:51:50.301Z,11.23
2022-10-22T11:54:45.436Z,11.73
2022-10-22T11:57:39.962Z,11.40
2022-10-22T12:00:37.012Z,11.63
2022-10-22T12:03:40.405Z,10.77
2022-10-22T12:06:28.029Z,10.97
2022-10-22T12:09:15.897Z,11.20
2022-10-22T12:12:15.024Z,11.33
2022-10-22T12:15:03.964Z,10.80
2022-10-22T12:17:51.208Z,11.10
2022-10-22T12:20:38.191Z,10.70
2022-10-22T12:23:32.961Z,9.90
2022-10-22T12:26:31.802Z,9.70
2022-10-22T12:29:18.628Z,9.47
2022-10-22T12:32:07.647Z,9.23
2022-10-22T12:34:54.444Z,10.50
2022-10-22T12:37:41.618Z,9.57
2022-10-22T12:40:30.454Z,9.27
2022-10-22T12:43:19.128Z,8.37
2022-10-22T12:46:05.818Z,8.90
2022-10-22T12:48:55.988Z,8.80
2022-10-22T12:51:42.833Z,9.17
2022-10-22T12:54:31.952Z,8.47
2022-10-22T12:57:20.955Z,8.13
2022-10-22T13:00:22.474Z,8.20
2022-10-22T13:03:28.645Z,8.27
2022-10-22T13:06:25.700Z,8.40
2022-10-22T13:09:17.570Z,7.83
2022-10-22T13:12:06.354Z,7.10
2022-10-22T13:14:52.925Z,7.40
2022-10-22T13:17:42.800Z,7.40
2022-10-22T13:20:29.668Z,7.20
2022-10-22T13:23:21.929Z,7.37
2022-10-22T13:26:16.661Z,7.60
2022-10-22T13:29:04.800Z,7.13
2022-10-22T13:31:53.902Z,6.77
2022-10-22T13:34:40.788Z,5.87
2022-10-22T13:37:29.018Z,5.97
2022-10-22T13:40:17.954Z,6.23
2022-10-22T13:43:04.800Z,5.73
2022-10-22T13:45:55.540Z,5.60
2022-10-22T13:48:42.532Z,5.67
2022-10-22T13:51:34.990Z,5.00
2022-10-22T13:54:24.518Z,4.90
2022-10-22T13:57:13.306Z,5.03
2022-10-22T14:00:00.111Z,4.77
2022-10-22T14:02:49.528Z,4.53
2022-10-22T14:05:36.221Z,4.37
2022-10-22T14:08:25.844Z,4.60
2022-10-22T14:11:13.163Z,4.27
2022-10-22T14:14:01.079Z,5.17
2022-10-22T14:16:47.883Z,4.50
2022-10-22T14:19:34.552Z,3.73
2022-10-22T14:22:21.843Z,3.87
2022-10-22T14:25:10.867Z,3.93
2022-10-22T14:27:57.538Z,3.60
2022-10-22T14:30:46.710Z,3.60
2022-10-22T14:33:34.868Z,3.20
2022-10-22T14:36:21.283Z,3.40
2022-10-22T14:39:08.082Z,3.30
2022-10-22T14:41:54.979Z,2.97
2022-10-22T14:44:42.769Z,3.27
2022-10-22T14:47:30.648Z,2.83
2022-10-22T14:50:17.881Z,2.80
2022-10-22T14:53:04.800Z,2.93
2022-10-22T14:55:52.271Z,2.93
2022-10-22T14:58:38.850Z,3.07
2022-10-22T15:01:25.827Z,2.97
2022-10-22T15:04:13.873Z,2.60
2022-10-22T15:07:00.503Z,2.93
2022-10-22T15:09:47.203Z,2.73
2022-10-22T15:12:34.249Z,2.70
2022-10-22T15:15:22.807Z,2.37
2022-10-22T15:18:10.465Z,2.47
2022-10-22T15:21:05.355Z,2.70
2022-10-22T15:23:52.720Z,2.40
2022-10-22T15:26:40.009Z,2.30
2022-10-22T15:29:26.803Z,2.30
2022-10-22T15:32:13.639Z,2.30
2022-10-22T15:35:01.092Z,2.70
2022-10-22T15:37:52.222Z,2.50
2022-10-22T15:40:38.692Z,2.57
2022-10-22T15:43:25.652Z,2.63
2022-10-22T15:46:15.292Z,3.23
2022-10-22T15:49:02.304Z,3.40
2022-10-22T15:51:49.353Z,3.37
2022-10-22T15:54:37.607Z,3.53
2022-10-22T15:57:24.243Z,3.93
2022-10-22T16:00:12.329Z,4.03
2022-10-22T16:02:58.781Z,4.10
2022-10-22T16:05:51.507Z,3.60
2022-10-22T16:08:38.790Z,3.63
2022-10-22T16:11:27.676Z,4.40
2022-10-22T16:14:16.510Z,4.13
2022-10-22T16:17:03.500Z,3.80
2022-10-22T16:19:50.571Z,4.23
2022-10-22T16:22:37.327Z,4.20
2022-10-22T16:25:24.754Z,4.07
2022-10-22T16:28:13.247Z,4.27
2022-10-22T16:31:05.982Z,4.87
2022-10-22T16:33:54.759Z,4.13
2022-10-22T16:36:41.391Z,4.47
2022-10-22T16:39:28.080Z,4.03
2022-10-22T16:42:14.710Z,4.30
2022-10-22T16:45:03.031Z,3.60
2022-10-22T16:47:49.698Z,3.97
2022-10-22T16:50:39.821Z,4.50
2022-10-22T16:53:26.738Z,4.23
2022-10-22T16:56:15.362Z,4.20
2022-10-22T16:59:01.754Z,4.93
2022-10-22T17:01:49.869Z,4.40
2022-10-22T17:04:36.893Z,5.27
2022-10-22T17:07:23.418Z,4.57
2022-10-22T17:10:10.480Z,5.13
2022-10-22T17:12:57.007Z,4.73
2022-10-22T17:15:44.579Z,4.20
2022-10-22T17:18:33.084Z,4.83
2022-10-22T17:21:20.567Z,4.73
2022-10-22T17:24:07.476Z,5.23
2022-10-22T17:26:53.875Z,4.63
2022-10-22T17:29:40.841Z,4.50
2022-10-22T17:32:27.532Z,4.37
2022-10-22T17:35:17.451Z,4.70
2022-10-22T17:38:04.078Z,4.70
2022-10-22T17:40:50.901Z,5.00
2022-10-22T17:43:38.017Z,5.53
2022-10-22T17:46:27.432Z,5.30
2022-10-22T17:49:18.286Z,5.37
2022-10-22T17:52:06.591Z,5.93
2022-10-22T17:54:53.813Z,5.43
2022-10-22T17:57:40.682Z,5.50
2022-10-22T18:00:29.227Z,5.57
2022-10-22T18:03:15.706Z,5.73
2022-10-22T18:06:07.396Z,5.70
2022-10-22T18:08:55.613Z,6.53
2022-10-22T18:11:42.336Z,5.87
2022-10-22T18:14:30.089Z,6.67
2022-10-22T18:17:16.971Z,5.90
2022-10-22T18:20:03.708Z,9.73
2022-10-22T18:22:50.510Z,6.53
2022-10-22T18:25:41.219Z,10.97
2022-10-22T18:28:27.842Z,7.80
2022-10-22T18:31:17.164Z,9.53
2022-10-22T18:34:03.647Z,9.43
2022-10-22T18:36:50.470Z,9.07
2022-10-22T18:39:37.374Z,10.37
2022-10-22T18:42:27.420Z,8.57
2022-10-22T18:45:17.464Z,9.27
2022-10-22T18:48:05.368Z,9.13
2022-10-22T18:51:00.337Z,9.33
2022-10-22T18:53:58.933Z,9.40
2022-10-22T18:56:54.869Z,9.50
2022-10-22T18:59:44.144Z,9.57
2022-10-22T19:02:31.049Z,8.93
2022-10-22T19:05:17.694Z,9.87
2022-10-22T19:08:05.179Z,9.57
2022-10-22T19:10:51.886Z,8.30
2022-10-22T19:13:38.784Z,8.70
2022-10-22T19:16:27.258Z,10.33
2022-10-22T19:19:17.768Z,11.17
2022-10-22T19:22:04.863Z,10.13
2022-10-22T19:24:51.743Z,9.47
2022-10-22T19:27:39.892Z,12.37
2022-10-22T19:30:27.514Z,10.17
2022-10-22T19:33:15.659Z,9.70
2022-10-22T19:36:05.604Z,10.20
2022-10-22T19:38:52.541Z,9.77
2022-10-22T19:41:39.907Z,9.63
2022-10-22T19:44:26.789Z,10.17
2022-10-22T19:47:13.650Z,10.73
2022-10-22T19:50:01.696Z,11.20
2022-10-22T19:52:48.359Z,11.57
2022-10-22T19:55:35.074Z,11.63
2022-10-22T19:58:21.742Z,11.60
2022-10-22T20:01:10.400Z,12.10
2022-10-22T20:03:56.974Z,11.83
2022-10-22T20:06:45.095Z,11.60
2022-10-22T20:09:31.742Z,12.33
2022-10-22T20:12:18.366Z,12.17
2022-10-22T20:15:05.583Z,10.67
2022-10-22T20:17:52.470Z,8.67
2022-10-22T20:20:39.541Z,9.40
2022-10-22T20:23:27.667Z,9.23
2022-10-22T20:26:14.646Z,9.80
2022-10-22T20:29:01.261Z,9.73
2022-10-22T20:31:48.481Z,10.27
2022-10-22T20:34:35.587Z,10.30
2022-10-22T20:37:22.138Z,8.43
2022-10-22T20:40:11.517Z,8.57
2022-10-22T20:42:58.041Z,8.47
2022-10-22T20:45:44.816Z,7.67
2022-10-22T20:48:32.409Z,7.80
2022-10-22T20:51:19.145Z,8.13
2022-10-22T20:54:07.384Z,7.53
2022-10-22T20:56:55.407Z,6.77
2022-10-22T20:59:41.918Z,7.80
2022-10-22T21:02:29.461Z,7.37
2022-10-22T21:05:16.372Z,7.63
2022-10-22T21:08:04.984Z,8.03
2022-10-22T21:10:51.481Z,8.23
2022-10-22T21:13:39.518Z,7.90
2022-10-22T21:16:26.540Z,8.33
2022-10-22T21:19:13.409Z,8.37
2022-10-22T21:22:07.575Z,7.63
2022-10-22T21:25:01.720Z,6.83
2022-10-22T21:27:50.377Z,6.97
2022-10-22T21:30:46.888Z,6.83
2022-10-22T21:33:36.899Z,6.00
2022-10-22T21:36:25.111Z,5.73
2022-10-22T21:39:12.104Z,5.87
2022-10-22T21:41:58.896Z,5.33
2022-10-22T21:44:45.687Z,4.60
2022-10-22T21:47:33.785Z,5.50
2022-10-22T21:50:20.870Z,4.80
2022-10-22T21:53:07.284Z,5.10
2022-10-22T21:55:54.084Z,4.50
2022-10-22T21:58:41.004Z,4.93
2022-10-22T22:01:28.176Z,5.00
2022-10-22T22:04:15.941Z,5.33
2022-10-22T22:07:02.731Z,5.17
2022-10-22T22:09:50.621Z,4.60
2022-10-22T22:12:37.716Z,5.30
2022-10-22T22:15:24.293Z,4.50
2022-10-22T22:18:11.086Z,5.33
2022-10-22T22:21:01.011Z,5.10
2022-10-22T22:23:49.227Z,4.47
2022-10-22T22:26:35.808Z,5.00
2022-10-22T22:29:22.512Z,5.20
2022-10-22T22:32:09.412Z,4.87
2022-10-22T22:34:56.261Z,4.87
2022-10-22T22:37:44.411Z,4.40
2022-10-22T22:40:33.755Z,4.30
2022-10-22T22:43:20.829Z,4.53
2022-10-22T22:46:11.335Z,4.70
2022-10-22T22:48:58.008Z,4.87
2022-10-22T22:51:44.882Z,5.30
2022-10-22T22:54:32.925Z,4.73
2022-10-22T22:57:21.813Z,4.93
2022-10-22T23:00:10.772Z,4.73
2022-10-22T23:02:58.113Z,4.57
2022-10-22T23:05:46.032Z,4.50
2022-10-22T23:08:33.475Z,4.70
2022-10-22T23:11:23.281Z,4.67
2022-10-22T23:14:12.830Z,4.47
2022-10-22T23:17:00.328Z,4.07
2022-10-22T23:19:47.204Z,5.73
2022-10-22T23:22:34.334Z,4.30
2022-10-22T23:25:22.041Z,4.50
2022-10-22T23:28:10.467Z,4.40
2022-10-22T23:30:57.355Z,4.00
2022-10-22T23:33:44.641Z,4.23
2022-10-22T23:36:31.482Z,4.77
2022-10-22T23:39:20.289Z,4.10
2022-10-22T23:42:06.985Z,4.40
2022-10-22T23:44:55.201Z,4.93
2022-10-22T23:47:42.462Z,4.70
2022-10-22T23:50:29.526Z,4.30
2022-10-22T23:53:16.400Z,4.37
2022-10-22T23:56:05.669Z,4.43
2022-10-22T23:58:53.405Z,4.00
